Time;durP1;ratioP1;P1;durP2;ratioP2;P2;SDS_P1;SDS_P2;PMS_P1;PMS_P2;Temp;Humidity;BMP_temperature;BMP_pressure;BME280_temperature;BME280_humidity;BME280_pressure;Samples;Min_cycle;Max_cycle;Signal;HPM_P1;HPM_P2
2022/10/18 00:02:02;;;;;;;;;;;;;;;21.06;32.61;99536.59;4905022;29;1901;-80
2022/10/18 00:04:28;;;;;;;;;;;;;;;21.37;31.33;99522.84;4936171;29;1981;-81
2022/10/18 00:06:53;;;;;;;;;;;;;;;21.26;31.72;99532.13;4926042;29;1116;-80
2022/10/18 00:09:19;;;;;;;;;;;;;;;20.99;31.74;99530.94;4921385;29;968;-80
2022/10/18 00:11:44;;;;;;;;;;;;;;;21.13;31.42;99536.59;4905017;29;1941;-80
2022/10/18 00:14:10;;;;;;;;;;;;;;;21.22;31.61;99539.03;4921818;29;982;-80
2022/10/18 00:16:35;;;;;;;;;;;;;;;21.54;31.07;99533.34;4890067;29;1210;-80
2022/10/18 00:19:00;;;;;;;;;;;;;;;21.51;31.07;99537.00;4905497;29;987;-80
2022/10/18 00:21:26;;;;;;;;;;;;;;;21.53;31.40;99531.72;4889264;29;1766;-80
2022/10/18 00:23:51;;;;;;;;;;;;;;;21.36;31.29;99532.56;4905399;29;1910;-81
2022/10/18 00:26:24;;;;;;;;;;;;;;;21.11;31.24;99532.56;4921461;29;760;-80
2022/10/18 00:28:50;;;;;;;;;;;;;;;20.97;31.43;99528.50;4905644;29;1199;-80
2022/10/18 00:31:16;;;;;;;;;;;;;;;20.87;31.83;99526.47;4920985;29;1305;-80
2022/10/18 00:33:42;;;;;;;;;;;;;;;20.88;31.83;99525.28;4919980;29;1861;-80
2022/10/18 00:36:07;;;;;;;;;;;;;;;20.73;32.09;99518.81;4921200;29;800;-80
2022/10/18 00:38:33;;;;;;;;;;;;;;;20.99;32.23;99519.63;4921301;29;908;-80
2022/10/18 00:40:58;;;;;;;;;;;;;;;21.42;31.32;99516.78;4893818;29;1426;-80
2022/10/18 00:43:24;;;;;;;;;;;;;;;21.39;31.30;99514.75;4919732;29;1999;-80
2022/10/18 00:45:49;;;;;;;;;;;;;;;21.06;31.89;99514.75;4905098;29;812;-80
2022/10/18 00:48:15;;;;;;;;;;;;;;;21.01;31.67;99511.53;4921138;29;1119;-80
2022/10/18 00:50:40;;;;;;;;;;;;;;;20.93;31.59;99504.25;4920812;29;969;-80
2022/10/18 00:53:07;;;;;;;;;;;;;;;20.62;32.06;99501.00;4904127;29;1983;-80
2022/10/18 00:55:33;;;;;;;;;;;;;;;20.75;32.28;99504.25;4905028;29;749;-80
2022/10/18 00:57:58;;;;;;;;;;;;;;;21.21;31.86;99498.59;4889431;29;1294;-80
2022/10/18 01:00:24;;;;;;;;;;;;;;;21.43;31.62;99498.56;4901598;29;889;-80
2022/10/18 01:02:49;;;;;;;;;;;;;;;21.30;31.07;99496.19;4897859;29;1952;-80
2022/10/18 01:05:15;;;;;;;;;;;;;;;20.99;31.94;99491.34;4898691;29;1915;-80
2022/10/18 01:07:46;;;;;;;;;;;;;;;20.90;31.87;99494.56;4899812;29;2052;-80
2022/10/18 01:10:12;;;;;;;;;;;;;;;21.08;31.63;99491.72;4919226;29;1173;-80
2022/10/18 01:12:49;;;;;;;;;;;;;;;21.40;31.39;99483.22;4919866;29;2008;-80
2022/10/18 01:15:14;;;;;;;;;;;;;;;21.48;31.26;99487.63;4905103;29;1142;-80
2022/10/18 01:18:09;;;;;;;;;;;;;;;21.09;31.79;99490.53;4920282;29;836;-80
2022/10/18 01:20:53;;;;;;;;;;;;;;;20.99;32.18;99485.69;4845539;29;1066;-80
2022/10/18 01:23:19;;;;;;;;;;;;;;;20.91;32.13;99479.19;4845517;29;1984;-80
2022/10/18 01:26:04;;;;;;;;;;;;;;;21.05;31.75;99484.03;4845786;29;1070;-80
2022/10/18 01:28:39;;;;;;;;;;;;;;;21.26;31.96;99481.19;4827192;29;1004;-80
2022/10/18 01:31:09;;;;;;;;;;;;;;;21.29;31.85;99477.53;4825435;29;2009;-80
2022/10/18 01:33:34;;;;;;;;;;;;;;;21.41;31.20;99475.53;4796211;29;2035;-80
2022/10/18 01:36:12;;;;;;;;;;;;;;;21.06;31.66;99475.16;4827285;29;814;-80
2022/10/18 01:38:37;;;;;;;;;;;;;;;21.01;31.84;99477.56;4827439;29;1290;-80
2022/10/18 01:41:03;;;;;;;;;;;;;;;20.99;31.84;99482.84;4826087;29;1425;-80
2022/10/18 01:43:28;;;;;;;;;;;;;;;20.81;32.09;99486.47;4811919;29;1915;-80
2022/10/18 01:45:54;;;;;;;;;;;;;;;21.25;32.13;99465.41;4827512;29;934;-80
2022/10/18 01:48:20;;;;;;;;;;;;;;;21.38;31.47;99474.31;4826798;29;825;-80
2022/10/18 01:50:46;;;;;;;;;;;;;;;21.30;31.67;99473.53;4823782;29;1119;-80
2022/10/18 01:53:27;;;;;;;;;;;;;;;21.08;31.76;99469.06;4807343;29;1815;-79
2022/10/18 01:56:14;;;;;;;;;;;;;;;21.14;31.58;99472.28;4783095;29;1897;-80
2022/10/18 01:58:46;;;;;;;;;;;;;;;20.91;31.93;99469.91;4859060;29;1899;-80
2022/10/18 02:01:34;;;;;;;;;;;;;;;20.78;32.37;99475.19;4829060;29;1841;-80
2022/10/18 02:04:06;;;;;;;;;;;;;;;20.95;32.13;99467.88;4808304;29;1919;-80
2022/10/18 02:06:34;;;;;;;;;;;;;;;21.33;31.64;99466.22;4812530;29;1039;-80
2022/10/18 02:09:06;;;;;;;;;;;;;;;21.59;30.94;99468.56;4829966;29;942;-80
2022/10/18 02:11:32;;;;;;;;;;;;;;;21.30;31.50;99467.88;4829114;29;1892;-80
2022/10/18 02:14:07;;;;;;;;;;;;;;;21.06;31.51;99477.97;4829757;29;1421;-80
2022/10/18 02:16:38;;;;;;;;;;;;;;;20.95;31.64;99473.53;4829615;29;840;-80
2022/10/18 02:19:09;;;;;;;;;;;;;;;20.91;32.73;99467.88;4829595;29;1207;-80
2022/10/18 02:25:12;;;;;;;;;;;;;;;21.22;31.45;99469.06;4844677;29;1976;-80
2022/10/18 02:27:38;;;;;;;;;;;;;;;21.05;31.37;99467.88;4844713;29;1389;-80
2022/10/18 02:30:03;;;;;;;;;;;;;;;20.74;31.90;99472.34;4844556;29;773;-79
2022/10/18 02:32:39;;;;;;;;;;;;;;;21.00;31.55;99470.31;4807536;29;1925;-79
2022/10/18 02:35:05;;;;;;;;;;;;;;;21.24;32.11;99463.81;4807221;29;1942;-80
2022/10/18 02:37:36;;;;;;;;;;;;;;;21.24;31.76;99455.31;4793079;29;916;-80
2022/10/18 02:40:02;;;;;;;;;;;;;;;21.26;31.59;99467.03;4800391;29;875;-80
2022/10/18 02:42:37;;;;;;;;;;;;;;;21.18;31.56;99459.75;4891833;29;2008;-80
2022/10/18 02:45:03;;;;;;;;;;;;;;;21.05;31.88;99455.75;4891456;29;2002;-80
2022/10/18 02:47:28;;;;;;;;;;;;;;;20.94;31.94;99454.97;4880334;29;1705;-80
2022/10/18 02:49:54;;;;;;;;;;;;;;;21.19;31.92;99454.91;4881224;29;805;-80
2022/10/18 02:52:19;;;;;;;;;;;;;;;21.36;31.69;99454.09;4880902;29;2021;-80
2022/10/18 02:54:45;;;;;;;;;;;;;;;21.42;31.35;99457.31;4881270;29;768;-80
2022/10/18 02:57:10;;;;;;;;;;;;;;;20.96;31.83;99453.31;4865624;29;862;-80
2022/10/18 02:59:36;;;;;;;;;;;;;;;20.95;31.77;99462.22;4881491;29;896;-80
2022/10/18 03:02:01;;;;;;;;;;;;;;;20.74;32.08;99458.19;4876400;29;1993;-80
2022/10/18 03:04:26;;;;;;;;;;;;;;;21.02;32.43;99457.34;4881194;29;1919;-80
2022/10/18 03:06:52;;;;;;;;;;;;;;;21.44;31.05;99449.22;4865693;29;1271;-80
2022/10/18 03:12:51;;;;;;;;;;;;;;;21.07;31.40;99459.78;4917730;29;1913;-80
2022/10/18 03:15:17;;;;;;;;;;;;;;;20.92;31.99;99452.50;4887640;29;1148;-79
2022/10/18 03:17:42;;;;;;;;;;;;;;;20.74;31.87;99451.72;4906484;29;780;-80
2022/10/18 03:20:08;;;;;;;;;;;;;;;21.02;32.24;99453.72;4938568;29;843;-80
2022/10/18 03:22:33;;;;;;;;;;;;;;;21.35;31.25;99446.81;4931960;29;1977;-80
2022/10/18 03:28:35;;;;;;;;;;;;;;;20.75;31.93;99451.31;4958873;29;683;-79
2022/10/18 03:31:01;;;;;;;;;;;;;;;20.87;31.88;99443.63;4941237;29;1176;-80
2022/10/18 03:33:26;;;;;;;;;;;;;;;20.95;32.03;99448.06;4910288;29;2012;-80
2022/10/18 03:35:52;;;;;;;;;;;;;;;21.28;31.48;99446.78;4943353;29;733;-80
2022/10/18 03:38:17;;;;;;;;;;;;;;;21.32;31.29;99441.97;4941931;29;863;-80
2022/10/18 03:40:43;;;;;;;;;;;;;;;21.01;31.59;99449.28;4942364;29;1279;-79
2022/10/18 03:43:08;;;;;;;;;;;;;;;20.95;31.57;99446.06;4922597;29;2004;-80
2022/10/18 03:49:09;;;;;;;;;;;;;;;21.16;31.52;99439.56;4924412;29;606;-80
2022/10/18 03:51:34;;;;;;;;;;;;;;;21.38;31.40;99445.19;4924467;29;1940;-80
2022/10/18 03:53:59;;;;;;;;;;;;;;;21.06;31.51;99446.03;4922198;29;1104;-80
2022/10/18 03:56:25;;;;;;;;;;;;;;;20.72;31.89;99437.97;4891265;29;1941;-80
2022/10/18 03:58:50;;;;;;;;;;;;;;;20.90;31.80;99429.50;4902784;29;893;-80
2022/10/18 04:01:16;;;;;;;;;;;;;;;20.69;31.89;99432.34;4903316;29;812;-80
2022/10/18 04:03:41;;;;;;;;;;;;;;;20.87;32.15;99438.78;4903009;29;1911;-80
2022/10/18 04:06:08;;;;;;;;;;;;;;;21.24;31.58;99435.50;4903185;29;812;-80
2022/10/18 04:08:34;;;;;;;;;;;;;;;21.38;31.07;99446.00;4903087;29;943;-80
2022/10/18 04:11:03;;;;;;;;;;;;;;;20.93;31.94;99447.66;4902722;29;788;-80
2022/10/18 04:13:40;;;;;;;;;;;;;;;20.85;32.01;99446.06;4902913;29;1251;-80
2022/10/18 04:16:06;;;;;;;;;;;;;;;20.90;31.86;99448.47;4902923;29;732;-79
2022/10/18 04:18:31;;;;;;;;;;;;;;;21.05;32.12;99438.78;4902613;29;1209;-80
2022/10/18 04:20:57;;;;;;;;;;;;;;;21.20;31.57;99446.03;4902643;29;1119;-80
2022/10/18 04:23:23;;;;;;;;;;;;;;;21.24;31.31;99446.00;4901561;29;1915;-80
2022/10/18 04:25:48;;;;;;;;;;;;;;;21.04;31.57;99440.78;4905158;29;819;-80
2022/10/18 04:28:14;;;;;;;;;;;;;;;20.89;31.92;99446.88;4921610;29;768;-80
2022/10/18 04:30:39;;;;;;;;;;;;;;;20.98;31.54;99438.75;4906105;29;1234;-79
2022/10/18 04:33:04;;;;;;;;;;;;;;;20.96;32.00;99441.19;4921442;29;1426;-79
2022/10/18 04:35:30;;;;;;;;;;;;;;;21.37;31.26;99438.72;4921806;29;1110;-81
2022/10/18 04:37:55;;;;;;;;;;;;;;;21.35;31.48;99434.66;4937278;29;705;-79
2022/10/18 04:40:21;;;;;;;;;;;;;;;21.12;31.36;99427.44;4923665;29;1217;-79
2022/10/18 04:42:46;;;;;;;;;;;;;;;20.96;31.91;99435.53;4939030;29;768;-79
2022/10/18 04:45:12;;;;;;;;;;;;;;;21.00;31.54;99436.34;4922498;29;1915;-79
2022/10/18 04:47:37;;;;;;;;;;;;;;;20.95;31.74;99437.56;4923120;29;1077;-80
2022/10/18 04:50:03;;;;;;;;;;;;;;;21.49;31.36;99434.63;4923080;29;889;-79
2022/10/18 04:52:29;;;;;;;;;;;;;;;21.61;30.91;99437.03;4939144;29;827;-79
2022/10/18 04:54:54;;;;;;;;;;;;;;;21.26;31.17;99427.41;4939831;29;812;-80
2022/10/18 04:57:20;;;;;;;;;;;;;;;21.04;31.54;99442.81;4923811;29;1192;-79
2022/10/18 04:59:45;;;;;;;;;;;;;;;21.01;31.63;99435.13;4939027;29;934;-80
2022/10/18 05:02:10;;;;;;;;;;;;;;;20.79;31.97;99432.31;4938968;29;745;-79
2022/10/18 05:04:36;;;;;;;;;;;;;;;21.13;32.05;99429.03;4923167;29;1981;-79
2022/10/18 05:07:01;;;;;;;;;;;;;;;21.30;31.41;99428.22;4907205;29;1118;-80
2022/10/18 05:09:27;;;;;;;;;;;;;;;21.28;31.65;99438.31;4903932;29;870;-79
2022/10/18 05:11:52;;;;;;;;;;;;;;;21.09;31.56;99439.56;4906576;29;1129;-79
2022/10/18 05:14:18;;;;;;;;;;;;;;;21.10;31.51;99446.03;4901323;29;1337;-80
2022/10/18 05:16:43;;;;;;;;;;;;;;;20.88;32.35;99436.75;4901452;29;779;-80
2022/10/18 05:19:09;;;;;;;;;;;;;;;21.05;31.77;99447.25;4886128;29;1214;-79
2022/10/18 05:25:08;;;;;;;;;;;;;;;21.09;32.14;99442.41;4901487;29;1977;-79
2022/10/18 05:27:34;;;;;;;;;;;;;;;21.32;31.69;99439.94;4901430;29;1217;-79
2022/10/18 05:29:59;;;;;;;;;;;;;;;21.28;31.54;99436.28;4885577;29;801;-79
2022/10/18 05:32:25;;;;;;;;;;;;;;;21.08;31.98;99444.41;4900988;29;1127;-79
2022/10/18 05:34:50;;;;;;;;;;;;;;;21.14;31.71;99438.31;4900289;29;1276;-79
2022/10/18 05:37:16;;;;;;;;;;;;;;;21.27;31.58;99434.66;4899651;29;1197;-79
2022/10/18 05:39:41;;;;;;;;;;;;;;;21.52;31.44;99436.66;4884456;29;1237;-79
2022/10/18 05:42:07;;;;;;;;;;;;;;;21.44;31.81;99438.69;4881270;29;1301;-79
2022/10/18 05:44:33;;;;;;;;;;;;;;;21.02;32.04;99445.22;4865042;29;1911;-79
2022/10/18 05:46:58;;;;;;;;;;;;;;;21.20;31.45;99440.34;4899265;29;1363;-79
2022/10/18 05:49:24;;;;;;;;;;;;;;;21.17;31.50;99446.81;4903382;29;1319;-79
2022/10/18 05:51:49;;;;;;;;;;;;;;;20.97;31.83;99442.81;4918903;29;1201;-78
2022/10/18 05:54:15;;;;;;;;;;;;;;;20.86;32.22;99439.19;4903254;29;1311;-78
2022/10/18 05:56:40;;;;;;;;;;;;;;;21.27;32.33;99436.69;4902653;29;1300;-79
2022/10/18 05:59:10;;;;;;;;;;;;;;;21.58;31.78;99444.31;4903419;29;1367;-79
2022/10/18 06:01:39;;;;;;;;;;;;;;;21.21;31.98;99436.31;4918781;29;1303;-79
2022/10/18 06:04:04;;;;;;;;;;;;;;;21.02;32.44;99450.88;4898836;29;1982;-79
2022/10/18 06:06:30;;;;;;;;;;;;;;;21.07;32.18;99447.66;4856373;29;1341;-79
2022/10/18 06:08:56;;;;;;;;;;;;;;;21.05;32.25;99450.91;4902660;29;1343;-79
2022/10/18 06:11:21;;;;;;;;;;;;;;;21.22;32.55;99460.56;4884722;29;1241;-79
2022/10/18 06:13:47;;;;;;;;;;;;;;;21.44;32.00;99452.84;4897783;29;1250;-79
2022/10/18 06:16:13;;;;;;;;;;;;;;;21.20;32.37;99463.00;4918292;29;1240;-79
2022/10/18 06:18:38;;;;;;;;;;;;;;;21.01;32.69;99457.75;4902739;29;1309;-79
2022/10/18 06:21:04;;;;;;;;;;;;;;;20.84;32.75;99455.78;4918962;29;1272;-79
2022/10/18 06:23:29;;;;;;;;;;;;;;;20.92;32.49;99451.72;4913311;29;1922;-80
2022/10/18 06:26:02;;;;;;;;;;;;;;;21.16;32.82;99462.19;4903366;29;816;-79
2022/10/18 06:28:28;;;;;;;;;;;;;;;21.61;31.72;99458.88;4919338;29;1114;-78
2022/10/18 06:30:53;;;;;;;;;;;;;;;21.14;32.05;99458.97;4917172;29;1349;-79
2022/10/18 06:33:19;;;;;;;;;;;;;;;21.25;31.79;99456.94;4909061;29;1642;-77
2022/10/18 06:35:52;;;;;;;;;;;;;;;21.26;31.90;99464.19;4916273;29;1475;-75
2022/10/18 06:38:18;;;;;;;;;;;;;;;21.20;32.03;99460.16;4886280;29;1595;-78
2022/10/18 06:40:43;;;;;;;;;;;;;;;21.11;32.37;99462.59;4917926;29;1422;-79
2022/10/18 06:43:09;;;;;;;;;;;;;;;21.31;31.97;99451.69;4918236;29;1368;-78
2022/10/18 06:45:34;;;;;;;;;;;;;;;21.28;32.27;99450.44;4935909;29;1902;-78
2022/10/18 06:47:59;;;;;;;;;;;;;;;21.42;31.99;99446.00;4922837;29;863;-78
2022/10/18 06:50:25;;;;;;;;;;;;;;;21.35;32.13;99454.50;4891582;29;1290;-78
2022/10/18 06:52:51;;;;;;;;;;;;;;;21.36;31.93;99447.63;4907242;29;1228;-78
2022/10/18 06:55:16;;;;;;;;;;;;;;;21.55;32.02;99450.81;4921192;29;1738;-76
2022/10/18 06:57:42;;;;;;;;;;;;;;;21.61;31.97;99447.56;4921983;29;1614;-76
2022/10/18 07:00:07;;;;;;;;;;;;;;;21.95;31.64;99440.09;4938910;29;1672;-78
2022/10/18 07:02:33;;;;;;;;;;;;;;;21.79;32.05;99442.59;4938274;29;1504;-78
2022/10/18 07:04:58;;;;;;;;;;;;;;;22.21;31.46;99441.59;4938378;29;1969;-77
2022/10/18 07:07:24;;;;;;;;;;;;;;;22.12;31.56;99444.06;4904162;29;1638;-78
2022/10/18 07:09:49;;;;;;;;;;;;;;;21.76;32.86;99444.25;4906002;29;1547;-78
2022/10/18 07:12:16;;;;;;;;;;;;;;;21.43;33.10;99441.94;4917299;29;1610;-78
2022/10/18 07:14:42;;;;;;;;;;;;;;;21.28;33.41;99441.13;4918254;29;853;-79
2022/10/18 07:17:07;;;;;;;;;;;;;;;21.31;32.93;99452.50;4917042;29;1102;-79
2022/10/18 07:19:33;;;;;;;;;;;;;;;21.30;32.93;99450.88;4917386;29;1261;-78
2022/10/18 07:21:58;;;;;;;;;;;;;;;21.39;32.94;99452.47;4917763;29;1241;-79
2022/10/18 07:24:24;;;;;;;;;;;;;;;21.38;32.68;99440.31;4901654;29;2222;-78
2022/10/18 07:26:49;;;;;;;;;;;;;;;21.33;32.37;99438.72;4917326;29;1296;-78
2022/10/18 07:29:15;;;;;;;;;;;;;;;21.33;32.54;99438.72;4916751;29;1347;-77
2022/10/18 07:31:40;;;;;;;;;;;;;;;21.20;32.56;99446.03;4909223;29;1332;-78
2022/10/18 07:34:06;;;;;;;;;;;;;;;21.17;32.66;99435.50;4917466;29;1287;-78
2022/10/18 07:36:31;;;;;;;;;;;;;;;21.12;32.58;99433.09;4909380;29;1381;-78
2022/10/18 07:38:58;;;;;;;;;;;;;;;21.12;32.60;99427.44;4909461;29;1276;-78
2022/10/18 07:41:24;;;;;;;;;;;;;;;21.63;32.70;99434.59;5218504;23;3772;-81
2022/10/18 07:43:50;;;;;;;;;;;;;;;22.04;33.10;99436.81;4940487;29;1977;-81
2022/10/18 07:46:15;;;;;;;;;;;;;;;21.49;34.34;99426.13;4901746;29;1371;-81
2022/10/18 07:48:41;;;;;;;;;;;;;;;21.37;33.89;99435.88;4881325;29;1283;-80
2022/10/18 07:51:06;;;;;;;;;;;;;;;21.50;33.60;99436.25;5060533;23;4003;-78
2022/10/18 07:53:33;;;;;;;;;;;;;;;22.14;33.60;99429.50;4940339;29;1307;-77
2022/10/18 07:56:02;;;;;;;;;;;;;;;21.50;35.37;99434.25;4940849;29;1302;-79
2022/10/18 07:58:27;;;;;;;;;;;;;;;21.23;34.81;99428.19;4940290;29;1323;-79
2022/10/18 08:00:53;;;;;;;;;;;;;;;20.96;35.07;99435.53;4924753;29;1271;-79
2022/10/18 08:03:18;;;;;;;;;;;;;;;21.10;33.79;99432.69;4925244;29;1910;-79
2022/10/18 08:05:49;;;;;;;;;;;;;;;20.99;33.60;99429.09;4924188;29;1069;-79
2022/10/18 08:08:14;;;;;;;;;;;;;;;21.06;33.03;99417.75;4939753;29;1359;-78
2022/10/18 08:10:40;;;;;;;;;;;;;;;21.06;32.57;99418.53;4957056;29;1250;-79
2022/10/18 08:13:05;;;;;;;;;;;;;;;20.80;32.73;99422.63;4956882;29;1377;-79
2022/10/18 08:15:31;;;;;;;;;;;;;;;20.88;32.35;99422.59;4956886;29;1218;-79
2022/10/18 08:17:56;;;;;;;;;;;;;;;21.00;33.28;99419.38;4924016;29;1283;-79
2022/10/18 08:20:22;;;;;;;;;;;;;;;21.12;32.93;99410.44;4942895;29;1149;-79
2022/10/18 08:22:49;;;;;;;;;;;;;;;21.22;32.28;99415.28;4944954;29;1150;-77
2022/10/18 08:25:14;;;;;;;;;;;;;;;21.24;31.94;99418.53;4913149;29;1922;-77
2022/10/18 08:27:39;;;;;;;;;;;;;;;20.93;32.28;99402.38;4943883;29;751;-77
2022/10/18 08:30:05;;;;;;;;;;;;;;;20.76;31.94;99410.50;4943655;29;697;-78
2022/10/18 08:32:31;;;;;;;;;;;;;;;20.75;31.58;99408.88;4944477;29;1111;-77
2022/10/18 08:34:56;;;;;;;;;;;;;;;20.71;31.37;99405.25;4944115;29;1127;-77
2022/10/18 08:37:22;;;;;;;;;;;;;;;20.88;31.54;99394.31;4944861;29;1265;-77
2022/10/18 08:39:47;;;;;;;;;;;;;;;21.31;30.53;99395.88;4961474;29;791;-77
2022/10/18 08:42:15;;;;;;;;;;;;;;;21.44;30.23;99398.25;4961513;29;696;-77
2022/10/18 08:44:43;;;;;;;;;;;;;;;21.09;30.19;99394.28;4944440;29;1923;-77
2022/10/18 08:47:13;;;;;;;;;;;;;;;20.94;30.69;99392.72;4924386;29;841;-77
2022/10/18 08:49:39;;;;;;;;;;;;;;;20.80;30.33;99400.00;4939915;29;936;-77
2022/10/18 08:52:08;;;;;;;;;;;;;;;20.66;31.01;99393.53;4940109;29;1226;-77
2022/10/18 08:54:35;;;;;;;;;;;;;;;21.13;30.01;99389.41;4924222;29;1253;-77
2022/10/18 08:57:01;;;;;;;;;;;;;;;21.54;29.03;99386.88;4908353;29;1167;-77
2022/10/18 08:59:31;;;;;;;;;;;;;;;21.03;29.82;99384.59;4924005;29;1269;-77
2022/10/18 09:02:15;;;;;;;;;;;;;;;20.70;30.15;99383.03;4924101;29;1224;-77
2022/10/18 09:05:00;;;;;;;;;;;;;;;20.70;30.11;99386.66;4923837;29;1983;-77
2022/10/18 09:07:26;;;;;;;;;;;;;;;21.06;29.49;99375.28;4867452;29;1225;-78
2022/10/18 09:10:10;;;;;;;;;;;;;;;21.41;28.65;99376.44;4867093;29;1123;-77
2022/10/18 09:12:44;;;;;;;;;;;;;;;21.01;29.22;99367.22;4866888;29;906;-77
2022/10/18 09:15:19;;;;;;;;;;;;;;;20.72;29.60;99372.09;4882302;29;745;-78
2022/10/18 09:17:53;;;;;;;;;;;;;;;20.60;29.73;99378.19;4882188;29;1170;-78
2022/10/18 09:20:18;;;;;;;;;;;;;;;21.00;29.07;99363.59;4882277;29;973;-78
2022/10/18 09:22:52;;;;;;;;;;;;;;;21.19;28.96;99367.97;4866991;29;1500;-77
2022/10/18 09:25:43;;;;;;;;;;;;;;;21.33;28.19;99365.09;4897566;29;1918;-77
2022/10/18 09:28:13;;;;;;;;;;;;;;;20.86;29.42;99362.81;4886191;29;1230;-78
2022/10/18 09:30:48;;;;;;;;;;;;;;;20.87;29.30;99353.09;4900406;29;1531;-77
2022/10/18 09:33:31;;;;;;;;;;;;;;;20.86;28.96;99351.47;4885459;29;1125;-78
2022/10/18 09:35:58;;;;;;;;;;;;;;;21.40;27.94;99357.81;4901118;29;788;-78
2022/10/18 09:38:25;;;;;;;;;;;;;;;21.51;28.02;99350.09;4900441;29;999;-78
2022/10/18 09:41:01;;;;;;;;;;;;;;;20.76;28.89;99348.25;4885026;29;1134;-78
2022/10/18 09:43:38;;;;;;;;;;;;;;;20.68;29.02;99345.88;4903730;29;1899;-78
2022/10/18 09:46:03;;;;;;;;;;;;;;;20.59;29.38;99331.34;4927124;29;708;-78
2022/10/18 09:48:31;;;;;;;;;;;;;;;21.25;28.17;99323.88;4926663;29;1149;-78
2022/10/18 09:51:01;;;;;;;;;;;;;;;21.28;28.18;99334.34;4942360;29;1258;-78
2022/10/18 09:53:32;;;;;;;;;;;;;;;21.32;27.82;99329.53;4911082;29;1196;-77
2022/10/18 09:55:59;;;;;;;;;;;;;;;20.72;28.78;99318.38;4919371;29;1190;-78
2022/10/18 09:58:25;;;;;;;;;;;;;;;20.68;28.88;99323.25;4892556;29;1142;-77
2022/10/18 10:00:51;;;;;;;;;;;;;;;20.91;28.96;99325.59;4924154;29;1339;-77
2022/10/18 10:03:16;;;;;;;;;;;;;;;21.27;28.23;99314.97;4908259;29;796;-77
2022/10/18 10:05:42;;;;;;;;;;;;;;;21.43;27.63;99314.50;4924251;29;1910;-78
2022/10/18 10:08:46;;;;;;;;;;;;;;;20.94;28.27;99313.47;4908346;29;1139;-77
2022/10/18 10:11:29;;;;;;;;;;;;;;;20.72;28.60;99302.19;4882358;29;795;-78
2022/10/18 10:14:14;;;;;;;;;;;;;;;20.49;28.79;99288.53;4882109;29;757;-78
2022/10/18 10:17:03;;;;;;;;;;;;;;;20.86;28.45;99290.06;4866634;29;1011;-77
2022/10/18 10:19:28;;;;;;;;;;;;;;;21.39;27.57;99296.72;4847713;29;1088;-78
2022/10/18 10:21:55;;;;;;;;;;;;;;;21.73;26.88;99291.28;4847813;29;1106;-80
2022/10/18 10:24:41;;;;;;;;;;;;;;;21.10;27.75;99281.91;4847554;29;1903;-78
2022/10/18 10:27:12;;;;;;;;;;;;;;;20.76;28.50;99280.38;4862989;29;1030;-77
2022/10/18 10:29:46;;;;;;;;;;;;;;;20.58;28.79;99268.31;4862961;29;926;-77
2022/10/18 10:32:15;;;;;;;;;;;;;;;21.13;27.73;99270.53;4848008;29;1243;-77
2022/10/18 10:34:40;;;;;;;;;;;;;;;21.27;27.53;99273.31;4862632;29;989;-77
2022/10/18 10:37:25;;;;;;;;;;;;;;;21.30;27.33;99269.69;4862686;29;946;-78
2022/10/18 10:40:09;;;;;;;;;;;;;;;20.58;28.70;99267.53;4862791;29;765;-78
2022/10/18 10:42:37;;;;;;;;;;;;;;;20.71;28.45;99255.34;4877345;29;948;-79
2022/10/18 10:45:03;;;;;;;;;;;;;;;21.01;27.87;99259.69;4881387;29;1910;-76
2022/10/18 10:47:30;;;;;;;;;;;;;;;21.31;27.28;99253.50;4881279;29;832;-76
2022/10/18 10:49:56;;;;;;;;;;;;;;;21.47;27.15;99250.19;4881316;29;999;-79
2022/10/18 10:52:22;;;;;;;;;;;;;;;20.89;27.84;99243.19;4881388;29;1236;-79
2022/10/18 10:54:47;;;;;;;;;;;;;;;20.71;28.38;99244.03;4866124;29;816;-79
2022/10/18 10:57:13;;;;;;;;;;;;;;;20.61;28.48;99233.56;4878158;29;1100;-79
2022/10/18 10:59:41;;;;;;;;;;;;;;;20.69;28.52;99223.84;4881227;29;807;-78
2022/10/18 11:02:12;;;;;;;;;;;;;;;21.21;27.40;99223.22;4881257;29;1109;-79
2022/10/18 11:04:39;;;;;;;;;;;;;;;21.44;27.27;99219.84;4881207;29;1907;-79
2022/10/18 11:07:07;;;;;;;;;;;;;;;21.00;27.75;99226.94;4847197;29;1274;-76
2022/10/18 11:09:52;;;;;;;;;;;;;;;20.69;28.09;99206.88;4862766;29;862;-78
2022/10/18 11:12:22;;;;;;;;;;;;;;;20.60;28.61;99212.16;4862497;29;898;-79
2022/10/18 11:15:17;;;;;;;;;;;;;;;21.05;27.65;99206.72;4862423;29;721;-79
2022/10/18 11:17:45;;;;;;;;;;;;;;;21.20;27.25;99208.25;4792584;29;1246;-79
2022/10/18 11:20:19;;;;;;;;;;;;;;;21.38;26.99;99198.88;4807763;29;1236;-79
2022/10/18 11:23:05;;;;;;;;;;;;;;;21.03;27.47;99192.16;4789628;30;1268;-79
2022/10/18 11:29:05;;;;;;;;;;;;;;;20.79;28.05;99194.72;4820907;29;823;-79
2022/10/18 11:31:40;;;;;;;;;;;;;;;21.12;27.28;99186.06;4810722;29;1111;-79
2022/10/18 11:34:18;;;;;;;;;;;;;;;21.43;27.14;99182.25;4810612;29;1277;-79
2022/10/18 11:37:02;;;;;;;;;;;;;;;20.90;27.92;99182.53;4810566;29;1066;-79
2022/10/18 11:39:43;;;;;;;;;;;;;;;20.89;27.86;99180.94;4825673;29;713;-76
2022/10/18 11:42:09;;;;;;;;;;;;;;;20.93;27.83;99164.72;4826647;29;1132;-77
2022/10/18 11:44:42;;;;;;;;;;;;;;;21.26;27.27;99161.31;4843717;29;1915;-77
2022/10/18 11:47:13;;;;;;;;;;;;;;;21.37;27.38;99152.75;4843753;29;870;-76
2022/10/18 11:49:41;;;;;;;;;;;;;;;20.95;27.72;99167.97;4844203;29;1123;-76
2022/10/18 11:52:08;;;;;;;;;;;;;;;20.70;28.43;99163.22;4843793;29;1253;-76
2022/10/18 11:54:36;;;;;;;;;;;;;;;20.74;27.98;99161.19;4884659;29;1164;-76
2022/10/18 11:57:01;;;;;;;;;;;;;;;21.24;27.31;99163.75;4942388;29;763;-79
2022/10/18 11:59:37;;;;;;;;;;;;;;;21.38;27.21;99162.06;4943220;29;704;-79
2022/10/18 12:02:02;;;;;;;;;;;;;;;21.24;27.28;99163.75;4910862;29;1229;-79
2022/10/18 12:04:34;;;;;;;;;;;;;;;20.69;27.89;99161.63;4942156;29;1989;-79
2022/10/18 12:07:00;;;;;;;;;;;;;;;20.55;28.13;99156.03;4926260;29;1202;-78
2022/10/18 12:09:29;;;;;;;;;;;;;;;20.83;27.63;99149.44;4910006;29;847;-79
2022/10/18 12:12:00;;;;;;;;;;;;;;;21.14;27.26;99143.97;4910263;29;768;-79
2022/10/18 12:14:28;;;;;;;;;;;;;;;21.35;27.17;99145.88;4910349;29;1272;-78
2022/10/18 12:16:53;;;;;;;;;;;;;;;21.02;27.43;99133.97;4925776;29;1023;-79
2022/10/18 12:19:20;;;;;;;;;;;;;;;20.72;27.77;99120.38;4926148;29;796;-79
2022/10/18 12:22:05;;;;;;;;;;;;;;;20.63;27.88;99123.69;4926127;29;748;-79
2022/10/18 12:24:30;;;;;;;;;;;;;;;20.66;27.94;99127.69;4905673;29;1914;-79
2022/10/18 12:26:59;;;;;;;;;;;;;;;21.14;27.26;99129.84;4921333;29;802;-79
2022/10/18 12:29:39;;;;;;;;;;;;;;;21.36;26.79;99122.84;4921404;29;796;-80
2022/10/18 12:32:06;;;;;;;;;;;;;;;20.77;27.72;99129.25;4905719;29;1002;-79
2022/10/18 12:34:38;;;;;;;;;;;;;;;20.57;28.00;99108.34;4884023;29;1220;-79
2022/10/18 12:37:12;;;;;;;;;;;;;;;20.73;27.98;99111.50;4883708;29;1125;-79
2022/10/18 12:39:41;;;;;;;;;;;;;;;21.11;27.03;99114.50;4883551;29;836;-78
2022/10/18 12:42:19;;;;;;;;;;;;;;;21.42;26.75;99103.38;4883765;29;855;-79
2022/10/18 12:44:45;;;;;;;;;;;;;;;21.17;26.74;99100.72;4883561;29;1992;-77
2022/10/18 12:47:17;;;;;;;;;;;;;;;20.92;27.41;99101.69;4868199;29;1210;-76
2022/10/18 12:49:42;;;;;;;;;;;;;;;20.78;27.50;99088.44;4883619;29;1118;-76
2022/10/18 12:52:23;;;;;;;;;;;;;;;20.97;27.32;99083.47;4883195;29;1086;-79
2022/10/18 12:55:04;;;;;;;;;;;;;;;21.33;26.68;99082.00;4887483;29;1267;-78
2022/10/18 12:57:47;;;;;;;;;;;;;;;21.46;26.50;99078.69;4886290;29;701;-79
2022/10/18 13:00:33;;;;;;;;;;;;;;;20.87;27.30;99087.16;4902180;29;815;-78
2022/10/18 13:03:07;;;;;;;;;;;;;;;20.75;27.70;99075.13;4864634;29;1192;-79
2022/10/18 13:05:50;;;;;;;;;;;;;;;20.70;27.98;99078.38;4866474;29;1915;-79
2022/10/18 13:08:36;;;;;;;;;;;;;;;21.23;26.88;99071.53;4883118;29;921;-79
2022/10/18 13:11:10;;;;;;;;;;;;;;;21.25;26.75;99066.28;4867698;29;1106;-78
2022/10/18 13:14:13;;;;;;;;;;;;;;;21.08;27.21;99059.53;4882918;29;1076;-80
2022/10/18 13:16:53;;;;;;;;;;;;;;;20.63;27.68;99055.81;4882981;29;871;-79
2022/10/18 13:19:31;;;;;;;;;;;;;;;20.75;27.58;99063.81;4867789;29;1138;-79
2022/10/18 13:21:59;;;;;;;;;;;;;;;20.80;27.59;99059.75;4882824;29;878;-79
2022/10/18 13:24:28;;;;;;;;;;;;;;;21.18;26.75;99051.38;4867387;29;1968;-79
2022/10/18 13:26:56;;;;;;;;;;;;;;;21.30;26.73;99054.53;4867240;29;940;-79
2022/10/18 13:29:37;;;;;;;;;;;;;;;21.06;26.90;99044.19;4867139;29;1254;-79
2022/10/18 13:32:14;;;;;;;;;;;;;;;20.87;27.24;99051.19;4866923;29;1103;-79